createdAt,value
2022-08-07T00:01:44.419Z,14.00
2022-08-07T00:04:09.535Z,13.90
2022-08-07T00:06:51.719Z,13.90
2022-08-07T00:09:24.712Z,13.70
2022-08-07T00:12:03.319Z,13.70
2022-08-07T00:14:32.413Z,13.80
2022-08-07T00:17:03.170Z,13.80
2022-08-07T00:19:34.274Z,13.80
2022-08-07T00:22:24.361Z,13.80
2022-08-07T00:25:05.680Z,13.70
2022-08-07T00:27:52.869Z,13.70
2022-08-07T00:30:27.220Z,13.70
2022-08-07T00:32:58.831Z,13.70
2022-08-07T00:35:30.085Z,13.70
2022-08-07T00:38:01.191Z,13.70
2022-08-07T00:40:36.134Z,13.70
2022-08-07T00:43:14.024Z,13.70
2022-08-07T00:45:59.711Z,13.70
2022-08-07T00:48:32.090Z,13.50
2022-08-07T00:51:02.748Z,13.50
2022-08-07T00:53:39.183Z,13.50
2022-08-07T00:56:19.560Z,13.50
2022-08-07T00:58:49.769Z,13.50
2022-08-07T01:01:21.360Z,13.50
2022-08-07T01:03:55.765Z,13.50
2022-08-07T01:06:29.065Z,13.50
2022-08-07T01:09:01.341Z,13.60
2022-08-07T01:12:10.211Z,13.50
2022-08-07T01:14:28.499Z,13.40
2022-08-07T01:16:59.259Z,13.40
2022-08-07T01:19:32.275Z,13.40
2022-08-07T01:22:08.689Z,13.40
2022-08-07T01:24:43.296Z,13.30
2022-08-07T01:27:19.668Z,13.30
2022-08-07T01:29:50.523Z,13.20
2022-08-07T01:32:22.594Z,13.10
2022-08-07T01:34:54.418Z,13.00
2022-08-07T01:37:25.658Z,13.00
2022-08-07T01:39:59.227Z,12.90
2022-08-07T01:42:39.455Z,12.90
2022-08-07T01:45:36.203Z,12.90
2022-08-07T01:48:19.977Z,12.90
2022-08-07T01:50:59.938Z,12.90
2022-08-07T01:54:08.415Z,12.80
2022-08-07T01:56:49.460Z,12.80
2022-08-07T01:59:31.168Z,12.90
2022-08-07T02:02:06.694Z,12.80
2022-08-07T02:04:56.427Z,12.80
2022-08-07T02:07:44.679Z,12.80
2022-08-07T02:10:26.255Z,12.80
2022-08-07T02:12:59.741Z,12.80
2022-08-07T02:15:38.230Z,12.70
2022-08-07T02:18:11.315Z,12.60
2022-08-07T02:20:43.114Z,12.60
2022-08-07T02:23:23.810Z,12.60
2022-08-07T02:26:31.202Z,12.60
2022-08-07T02:28:54.017Z,12.60
2022-08-07T02:31:28.739Z,12.50
2022-08-07T02:34:03.508Z,12.50
2022-08-07T02:36:39.108Z,12.50
2022-08-07T02:39:17.185Z,12.50
2022-08-07T02:42:10.392Z,12.40
2022-08-07T02:44:49.818Z,12.40
2022-08-07T02:47:23.954Z,12.30
2022-08-07T02:50:04.715Z,12.30
2022-08-07T02:52:44.065Z,12.20
2022-08-07T02:55:27.554Z,12.20
2022-08-07T02:58:16.454Z,12.10
2022-08-07T03:00:53.759Z,12.10
2022-08-07T03:03:24.282Z,12.10
2022-08-07T03:05:59.049Z,12.10
2022-08-07T03:08:29.656Z,12.00
2022-08-07T03:11:01.689Z,12.00
2022-08-07T03:13:39.292Z,11.90
2022-08-07T03:16:23.002Z,11.90
2022-08-07T03:18:58.755Z,11.80
2022-08-07T03:21:28.450Z,11.80
2022-08-07T03:24:20.527Z,11.80
2022-08-07T03:26:58.433Z,11.70
2022-08-07T03:29:36.833Z,11.80
2022-08-07T03:32:13.134Z,11.60
2022-08-07T03:34:47.561Z,11.60
2022-08-07T03:37:46.370Z,11.50
2022-08-07T03:40:30.889Z,11.50
2022-08-07T03:43:13.590Z,11.60
2022-08-07T03:45:49.789Z,11.60
2022-08-07T03:48:24.664Z,11.50
2022-08-07T03:50:58.056Z,11.50
2022-08-07T03:54:05.870Z,11.50
2022-08-07T03:56:33.221Z,11.40
2022-08-07T03:59:10.030Z,11.40
2022-08-07T04:01:47.408Z,11.40
2022-08-07T04:04:22.135Z,11.30
2022-08-07T04:06:56.221Z,11.30
2022-08-07T04:09:44.506Z,11.20
2022-08-07T04:12:28.509Z,11.30
2022-08-07T04:15:00.440Z,11.20
2022-08-07T04:18:31.434Z,11.20
2022-08-07T04:20:25.363Z,11.20
2022-08-07T04:23:01.306Z,11.20
2022-08-07T04:25:39.347Z,11.20
2022-08-07T04:28:13.530Z,11.30
2022-08-07T04:30:57.285Z,11.20
2022-08-07T04:33:35.397Z,11.20
2022-08-07T04:36:08.737Z,11.20
2022-08-07T04:38:40.684Z,11.20
2022-08-07T04:41:18.213Z,11.20
2022-08-07T04:44:12.655Z,11.20
2022-08-07T04:47:03.839Z,11.30
2022-08-07T04:49:57.987Z,11.30
2022-08-07T04:52:50.892Z,11.30
2022-08-07T04:58:15.731Z,11.30
2022-08-07T04:58:49.796Z,11.30
2022-08-07T05:01:19.096Z,11.30
2022-08-07T05:04:07.325Z,11.40
2022-08-07T05:06:51.283Z,11.40
2022-08-07T05:09:45.745Z,11.40
2022-08-07T05:12:26.881Z,11.50
2022-08-07T05:15:21.583Z,11.50
2022-08-07T05:17:58.244Z,11.50
2022-08-07T05:20:36.200Z,11.60
2022-08-07T05:23:15.755Z,11.60
2022-08-07T05:26:11.550Z,11.70
2022-08-07T05:28:40.614Z,11.80
2022-08-07T05:31:14.732Z,11.80
2022-08-07T05:33:51.229Z,11.80
2022-08-07T05:36:36.158Z,11.90
2022-08-07T05:40:05.472Z,11.90
2022-08-07T05:42:12.455Z,12.00
2022-08-07T05:44:46.453Z,12.20
2022-08-07T05:47:38.631Z,12.30
2022-08-07T05:50:14.226Z,12.40
2022-08-07T05:52:43.933Z,12.60
2022-08-07T05:55:14.857Z,12.70
2022-08-07T05:57:48.248Z,12.90
2022-08-07T06:00:20.322Z,13.10
2022-08-07T06:02:59.384Z,13.30
2022-08-07T06:05:31.339Z,13.50
2022-08-07T06:08:29.445Z,13.70
2022-08-07T06:10:57.505Z,13.90
2022-08-07T06:14:12.114Z,14.20
2022-08-07T06:16:19.161Z,14.40
2022-08-07T06:18:55.741Z,14.60
2022-08-07T06:22:14.980Z,14.80
2022-08-07T06:24:37.719Z,14.90
2022-08-07T06:27:06.909Z,15.10
2022-08-07T06:29:38.748Z,15.20
2022-08-07T06:32:09.861Z,15.40
2022-08-07T06:34:45.267Z,15.50
2022-08-07T06:37:17.213Z,15.60
2022-08-07T06:40:15.817Z,15.80
2022-08-07T06:42:43.499Z,15.90
2022-08-07T06:45:28.435Z,16.00
2022-08-07T06:48:02.678Z,16.10
2022-08-07T06:50:43.268Z,16.20
2022-08-07T06:55:28.082Z,16.30
2022-08-07T06:56:15.020Z,16.30
2022-08-07T07:00:12.663Z,16.40
2022-08-07T07:01:48.938Z,16.50
2022-08-07T07:04:27.623Z,16.50
2022-08-07T07:07:19.418Z,16.60
2022-08-07T07:09:52.164Z,16.60
2022-08-07T07:12:33.710Z,16.70
2022-08-07T07:15:23.535Z,16.70
2022-08-07T07:17:59.733Z,16.80
2022-08-07T07:20:33.966Z,16.80
2022-08-07T07:24:05.623Z,16.90
2022-08-07T07:26:34.831Z,17.00
2022-08-07T07:29:40.716Z,17.00
2022-08-07T07:31:48.739Z,17.10
2022-08-07T07:34:30.556Z,17.10
2022-08-07T07:37:14.389Z,17.20
2022-08-07T07:39:55.617Z,17.20
2022-08-07T07:42:32.848Z,17.20
2022-08-07T07:45:03.465Z,17.30
2022-08-07T07:47:51.870Z,17.30
2022-08-07T07:50:33.699Z,17.40
2022-08-07T07:53:13.636Z,17.40
2022-08-07T07:55:54.790Z,17.50
2022-08-07T07:58:29.720Z,17.50
2022-08-07T08:00:59.555Z,17.60
2022-08-07T08:04:10.573Z,17.60
2022-08-07T08:06:21.124Z,17.70
2022-08-07T08:08:52.154Z,17.70
2022-08-07T08:11:47.193Z,17.80
2022-08-07T08:14:10.948Z,17.90
2022-08-07T08:16:50.253Z,17.90
2022-08-07T08:20:18.732Z,17.90
2022-08-07T08:22:33.711Z,18.00
2022-08-07T08:25:42.625Z,18.10
2022-08-07T08:28:16.959Z,18.10
2022-08-07T08:30:57.504Z,18.20
2022-08-07T08:33:33.233Z,18.30
2022-08-07T08:36:04.445Z,18.40
2022-08-07T08:38:40.484Z,18.50
2022-08-07T08:41:19.553Z,18.60
2022-08-07T08:44:00.802Z,18.60
2022-08-07T08:46:38.476Z,18.70
2022-08-07T08:49:17.530Z,18.70
2022-08-07T08:52:13.728Z,18.80
2022-08-07T08:54:50.417Z,18.90
2022-08-07T08:57:33.974Z,19.00
2022-08-07T09:00:06.757Z,19.20
2022-08-07T09:02:42.179Z,19.30
2022-08-07T09:05:36.711Z,19.30
2022-08-07T09:08:28.353Z,19.40
2022-08-07T09:11:14.093Z,19.50
2022-08-07T09:14:08.654Z,19.60
2022-08-07T09:16:49.602Z,19.60
2022-08-07T09:19:51.322Z,19.70
2022-08-07T09:24:31.093Z,19.80
2022-08-07T09:25:27.409Z,19.80
2022-08-07T09:28:04.938Z,20.00
2022-08-07T09:30:55.033Z,20.10
2022-08-07T09:33:57.189Z,20.20
2022-08-07T09:36:36.981Z,20.30
2022-08-07T09:39:53.768Z,20.30
2022-08-07T09:42:32.928Z,20.40
2022-08-07T09:46:28.516Z,20.50
2022-08-07T09:48:29.614Z,20.60
2022-08-07T09:51:14.610Z,20.70
2022-08-07T09:54:03.648Z,20.80
2022-08-07T09:57:01.061Z,20.90
2022-08-07T10:00:00.553Z,20.90
2022-08-07T10:04:04.791Z,21.10
2022-08-07T10:06:39.606Z,21.20
2022-08-07T10:09:34.140Z,21.30
2022-08-07T10:12:21.489Z,21.30
2022-08-07T10:15:18.632Z,21.40
2022-08-07T10:18:08.400Z,21.60
2022-08-07T10:20:50.164Z,21.60
2022-08-07T10:24:06.856Z,21.70
2022-08-07T10:26:45.175Z,21.80
2022-08-07T10:29:43.213Z,21.90
2022-08-07T10:32:51.265Z,22.00
2022-08-07T10:35:55.381Z,22.00
2022-08-07T10:38:48.238Z,22.10
2022-08-07T10:41:47.305Z,22.20
2022-08-07T10:44:37.861Z,22.20
2022-08-07T10:47:26.942Z,22.30
2022-08-07T10:50:18.895Z,22.40
2022-08-07T10:53:07.927Z,22.50
2022-08-07T10:55:45.064Z,22.60
2022-08-07T10:58:36.438Z,22.70
2022-08-07T11:01:22.439Z,22.80
2022-08-07T11:04:23.364Z,22.90
2022-08-07T11:07:01.906Z,23.00
2022-08-07T11:10:07.124Z,23.00
2022-08-07T11:12:32.211Z,23.10
2022-08-07T11:15:14.456Z,23.10
2022-08-07T11:17:49.810Z,23.20
2022-08-07T11:20:27.286Z,23.30
2022-08-07T11:23:04.050Z,23.40
2022-08-07T11:25:48.198Z,23.40
2022-08-07T11:28:26.365Z,23.50
2022-08-07T11:31:08.921Z,23.60
2022-08-07T11:33:53.750Z,23.70
2022-08-07T11:36:44.769Z,23.80
2022-08-07T11:39:39.657Z,23.80
2022-08-07T11:42:29.541Z,23.80
2022-08-07T11:45:07.582Z,23.90
2022-08-07T11:47:58.802Z,23.90
2022-08-07T11:50:57.274Z,23.90
2022-08-07T11:53:43.435Z,24.00
2022-08-07T11:56:53.056Z,24.10
2022-08-07T12:00:10.853Z,24.20
2022-08-07T12:03:44.934Z,24.30
2022-08-07T12:06:37.864Z,24.40
2022-08-07T12:09:23.357Z,24.50
2022-08-07T12:12:10.913Z,24.60
2022-08-07T12:14:56.056Z,24.70
2022-08-07T12:17:58.926Z,24.80
2022-08-07T12:20:34.006Z,24.90
2022-08-07T12:23:37.335Z,25.00
2022-08-07T12:26:29.173Z,25.00
2022-08-07T12:29:11.299Z,25.00
2022-08-07T12:31:53.167Z,25.00
2022-08-07T12:34:36.894Z,25.10
2022-08-07T12:37:16.977Z,25.10
2022-08-07T12:39:53.220Z,25.10
2022-08-07T12:42:27.840Z,25.20
2022-08-07T12:45:04.481Z,25.30
2022-08-07T12:47:43.933Z,25.30
2022-08-07T12:50:34.009Z,25.40
2022-08-07T12:53:17.780Z,25.50
2022-08-07T12:56:03.491Z,25.50
2022-08-07T12:58:39.595Z,25.50
2022-08-07T13:01:35.810Z,25.60
2022-08-07T13:04:32.538Z,25.60
2022-08-07T13:08:12.884Z,25.70
2022-08-07T13:10:39.391Z,25.70
2022-08-07T13:13:46.914Z,25.80
2022-08-07T13:16:32.262Z,25.80
2022-08-07T13:19:18.467Z,25.70
2022-08-07T13:22:19.957Z,25.70
2022-08-07T13:24:57.771Z,25.80
2022-08-07T13:28:13.701Z,25.90
2022-08-07T13:30:41.425Z,26.00
2022-08-07T13:34:31.829Z,26.10
2022-08-07T13:36:20.263Z,26.10
2022-08-07T13:38:56.894Z,26.20
2022-08-07T13:41:35.795Z,26.10
2022-08-07T13:44:12.892Z,26.20
2022-08-07T13:46:49.591Z,26.20
2022-08-07T13:50:35.199Z,26.30
2022-08-07T13:52:25.905Z,26.30
2022-08-07T13:55:06.549Z,26.30
2022-08-07T13:57:38.571Z,26.40
2022-08-07T14:00:26.210Z,26.40
2022-08-07T14:02:58.942Z,26.40
2022-08-07T14:05:37.401Z,26.40
2022-08-07T14:08:09.756Z,26.50
2022-08-07T14:10:41.939Z,26.50
2022-08-07T14:13:17.910Z,26.60
2022-08-07T14:15:54.243Z,26.50
2022-08-07T14:18:32.883Z,26.50
2022-08-07T14:21:20.724Z,26.50
2022-08-07T14:24:00.350Z,26.50
2022-08-07T14:26:37.219Z,26.50
2022-08-07T14:30:05.872Z,26.50
2022-08-07T14:32:02.084Z,26.50
2022-08-07T14:34:34.211Z,26.50
2022-08-07T14:37:19.441Z,26.50
2022-08-07T14:40:16.470Z,26.50
2022-08-07T14:43:55.204Z,26.60
2022-08-07T14:45:49.388Z,26.60
2022-08-07T14:48:27.348Z,26.60
2022-08-07T14:51:00.134Z,26.50
2022-08-07T14:54:05.923Z,26.50
2022-08-07T14:56:29.886Z,26.40
2022-08-07T14:59:13.654Z,26.50
2022-08-07T15:01:53.990Z,26.50
2022-08-07T15:04:28.916Z,26.50
2022-08-07T15:06:58.933Z,26.50
2022-08-07T15:09:58.529Z,26.50
2022-08-07T15:12:30.451Z,26.40
2022-08-07T15:15:07.620Z,26.40
2022-08-07T15:17:55.402Z,26.30
2022-08-07T15:20:34.063Z,26.30
2022-08-07T15:25:13.218Z,26.30
2022-08-07T15:26:22.125Z,26.40
2022-08-07T15:30:03.590Z,26.40
2022-08-07T15:32:02.023Z,26.40
2022-08-07T15:34:36.421Z,26.40
2022-08-07T15:37:08.119Z,26.40
2022-08-07T15:39:56.223Z,26.30
2022-08-07T15:42:51.871Z,26.40
2022-08-07T15:45:56.214Z,26.40
2022-08-07T15:48:28.418Z,26.40
2022-08-07T15:51:09.432Z,26.40
2022-08-07T15:53:42.140Z,26.40
2022-08-07T15:56:24.441Z,26.40
2022-08-07T15:58:57.892Z,26.40
2022-08-07T16:01:38.483Z,26.30
2022-08-07T16:04:14.773Z,26.30
2022-08-07T16:06:52.634Z,26.20
2022-08-07T16:09:41.177Z,26.20
2022-08-07T16:12:31.678Z,26.20
2022-08-07T16:15:42.111Z,26.20
2022-08-07T16:18:10.729Z,26.20
2022-08-07T16:21:44.049Z,26.10
2022-08-07T16:23:58.345Z,26.10
2022-08-07T16:26:59.242Z,26.10
2022-08-07T16:30:10.070Z,26.10
2022-08-07T16:32:46.189Z,26.10
2022-08-07T16:35:58.432Z,26.10
2022-08-07T16:39:01.315Z,26.00
2022-08-07T16:42:02.300Z,26.10
2022-08-07T16:45:15.203Z,26.10
2022-08-07T16:48:07.699Z,26.00
2022-08-07T16:51:21.863Z,26.00
2022-08-07T16:54:09.085Z,25.90
2022-08-07T16:56:53.585Z,25.80
2022-08-07T16:59:46.395Z,25.90
2022-08-07T17:02:51.343Z,25.80
2022-08-07T17:06:19.275Z,25.80
2022-08-07T17:12:01.311Z,25.80
2022-08-07T17:14:40.398Z,25.80
2022-08-07T17:17:46.102Z,25.70
2022-08-07T17:20:29.706Z,25.70
2022-08-07T17:23:13.105Z,25.60
2022-08-07T17:25:54.466Z,25.60
2022-08-07T17:28:32.181Z,25.50
2022-08-07T17:31:16.175Z,25.50
2022-08-07T17:34:18.009Z,25.50
2022-08-07T17:36:49.225Z,25.50
2022-08-07T17:39:58.747Z,25.50
2022-08-07T17:42:58.282Z,25.50
2022-08-07T17:45:35.073Z,25.40
2022-08-07T17:48:11.067Z,25.40
2022-08-07T17:50:54.335Z,25.30
2022-08-07T17:54:00.628Z,25.20
2022-08-07T17:56:28.688Z,25.10
2022-08-07T17:59:09.034Z,25.00
2022-08-07T18:01:48.621Z,25.00
2022-08-07T18:04:31.243Z,25.00
2022-08-07T18:07:20.986Z,24.90
2022-08-07T18:10:07.469Z,24.80
2022-08-07T18:13:20.533Z,24.70
2022-08-07T18:16:05.725Z,24.70
2022-08-07T18:21:03.233Z,24.60
2022-08-07T18:21:53.411Z,24.50
2022-08-07T18:24:33.999Z,24.50
2022-08-07T18:27:21.030Z,24.40
2022-08-07T18:30:30.797Z,24.40
2022-08-07T18:33:28.428Z,24.30
2022-08-07T18:36:14.005Z,24.20
2022-08-07T18:40:05.067Z,24.10
2022-08-07T18:42:04.145Z,24.00
2022-08-07T18:45:39.952Z,24.00
2022-08-07T18:47:44.876Z,23.90
2022-08-07T18:50:46.046Z,23.80
2022-08-07T18:53:37.031Z,23.80
2022-08-07T18:56:17.448Z,23.70
2022-08-07T18:59:06.257Z,23.60
2022-08-07T19:02:17.360Z,23.50
2022-08-07T19:04:57.727Z,23.40
2022-08-07T19:07:35.775Z,23.30
2022-08-07T19:10:18.503Z,23.20
2022-08-07T19:12:57.947Z,23.10
2022-08-07T19:16:05.903Z,23.00
2022-08-07T19:18:44.802Z,22.90
2022-08-07T19:21:44.039Z,22.80
2022-08-07T19:24:30.989Z,22.70
2022-08-07T19:29:02.893Z,22.60
2022-08-07T19:31:04.540Z,22.60
2022-08-07T19:32:51.848Z,22.50
2022-08-07T19:35:25.282Z,22.40
2022-08-07T19:37:58.750Z,22.30
2022-08-07T19:40:34.766Z,22.20
2022-08-07T19:43:21.565Z,22.10
2022-08-07T19:46:09.919Z,22.00
2022-08-07T19:48:42.450Z,21.80
2022-08-07T19:51:19.867Z,21.70
2022-08-07T19:54:34.999Z,21.60
2022-08-07T19:58:00.227Z,21.50
2022-08-07T19:59:42.107Z,21.40
2022-08-07T20:02:19.758Z,21.30
2022-08-07T20:04:51.821Z,21.20
2022-08-07T20:07:46.171Z,21.10
2022-08-07T20:10:35.307Z,21.10
2022-08-07T20:13:22.820Z,21.00
2022-08-07T20:15:57.746Z,20.90
2022-08-07T20:18:32.272Z,20.80
2022-08-07T20:21:21.063Z,20.70
2022-08-07T20:23:57.714Z,20.60
2022-08-07T20:26:38.594Z,20.60
2022-08-07T20:29:16.803Z,20.50
2022-08-07T20:32:11.585Z,20.40
2022-08-07T20:34:53.868Z,20.30
2022-08-07T20:37:29.186Z,20.30
2022-08-07T20:40:03.757Z,20.20
2022-08-07T20:42:35.446Z,20.20
2022-08-07T20:45:32.257Z,20.10
2022-08-07T20:47:59.117Z,20.00
2022-08-07T20:50:30.486Z,20.00
2022-08-07T20:53:00.282Z,19.90
2022-08-07T20:55:32.315Z,19.80
2022-08-07T20:58:08.900Z,19.70
2022-08-07T21:00:46.006Z,19.70
2022-08-07T21:03:25.655Z,19.70
2022-08-07T21:06:03.618Z,19.60
2022-08-07T21:08:57.763Z,19.50
2022-08-07T21:11:46.159Z,19.50
2022-08-07T21:14:31.973Z,19.40
2022-08-07T21:18:01.094Z,19.40
2022-08-07T21:20:00.885Z,19.30
2022-08-07T21:22:45.051Z,19.20
2022-08-07T21:25:39.194Z,19.20
2022-08-07T21:28:18.990Z,19.10
2022-08-07T21:31:11.997Z,19.00
2022-08-07T21:33:45.508Z,19.00
2022-08-07T21:36:31.125Z,18.90
2022-08-07T21:39:47.952Z,18.90
2022-08-07T21:42:14.866Z,18.80
2022-08-07T21:45:08.379Z,18.70
2022-08-07T21:48:03.180Z,18.60
2022-08-07T21:50:36.402Z,18.50
2022-08-07T21:53:14.590Z,18.40
2022-08-07T21:55:49.650Z,18.40
2022-08-07T21:58:30.567Z,18.30
2022-08-07T22:01:05.600Z,18.20
2022-08-07T22:03:48.938Z,18.10
2022-08-07T22:06:30.796Z,18.10
2022-08-07T22:09:06.880Z,18.00
2022-08-07T22:12:05.020Z,18.00
2022-08-07T22:14:36.534Z,17.90
2022-08-07T22:17:10.220Z,17.80
2022-08-07T22:19:46.792Z,17.70
2022-08-07T22:22:28.768Z,17.70
2022-08-07T22:25:07.659Z,17.60
2022-08-07T22:28:07.186Z,17.60
2022-08-07T22:30:37.835Z,17.50
2022-08-07T22:33:52.986Z,17.40
2022-08-07T22:36:32.698Z,17.40
2022-08-07T22:39:08.766Z,17.30
2022-08-07T22:42:03.992Z,17.30
2022-08-07T22:44:38.170Z,17.20
2022-08-07T22:47:43.438Z,17.10
2022-08-07T22:50:43.176Z,17.10
2022-08-07T22:54:07.080Z,17.10
2022-08-07T22:56:34.788Z,17.00
2022-08-07T22:59:32.668Z,16.90
2022-08-07T23:02:35.358Z,16.90
2022-08-07T23:06:09.091Z,16.80
2022-08-07T23:08:51.530Z,16.80
2022-08-07T23:11:35.230Z,16.70
2022-08-07T23:14:38.939Z,16.70
2022-08-07T23:17:26.659Z,16.60
2022-08-07T23:20:51.865Z,16.60
2022-08-07T23:24:04.502Z,16.50
2022-08-07T23:26:25.339Z,16.50
2022-08-07T23:29:43.783Z,16.50
2022-08-07T23:34:23.250Z,16.40
2022-08-07T23:35:20.318Z,16.30
2022-08-07T23:38:27.649Z,16.30
2022-08-07T23:41:21.837Z,16.20
2022-08-07T23:44:05.211Z,16.20
2022-08-07T23:47:02.999Z,16.20
2022-08-07T23:49:55.809Z,16.10
2022-08-07T23:52:57.950Z,16.10
2022-08-07T23:55:51.677Z,16.10
2022-08-07T23:58:26.983Z,16.10
